Time;durP1;ratioP1;P1;durP2;ratioP2;P2;SDS_P1;SDS_P2;PMS_P1;PMS_P2;Temp;Humidity;BMP_temperature;BMP_pressure;BME280_temperature;BME280_humidity;BME280_pressure;Samples;Min_cycle;Max_cycle;Signal;HPM_P1;HPM_P2
2023/06/26 00:01:47;;;;;;;20.10;7.75;;;;;;;23.86;50.92;100418.19;4140821;28;20078;-65
2023/06/26 00:03:50;;;;;;;12.45;7.07;;;;;;;23.88;50.98;100423.41;4159026;28;20120;-66
2023/06/26 00:05:52;;;;;;;18.63;7.20;;;;;;;23.88;51.03;100416.31;4140762;28;20054;-66
2023/06/26 00:07:55;;;;;;;11.55;7.00;;;;;;;23.82;51.69;100423.66;4156258;28;20041;-66
2023/06/26 00:09:58;;;;;;;12.57;6.50;;;;;;;23.78;51.78;100424.69;4160554;28;20510;-65
2023/06/26 00:12:02;;;;;;;16.37;6.90;;;;;;;23.77;52.21;100415.88;4142566;28;20092;-66
2023/06/26 00:14:06;;;;;;;11.40;6.80;;;;;;;23.74;52.46;100415.13;4159123;28;20049;-65
2023/06/26 00:16:09;;;;;;;9.88;6.60;;;;;;;23.70;52.47;100420.56;4159673;28;20037;-65
2023/06/26 00:18:12;;;;;;;11.85;6.55;;;;;;;23.76;52.76;100415.91;4161606;28;20064;-65
2023/06/26 00:20:16;;;;;;;10.80;6.88;;;;;;;23.73;53.00;100419.59;4154069;28;20084;-65
2023/06/26 00:22:22;;;;;;;10.45;6.53;;;;;;;23.64;53.12;100415.53;4160640;28;20041;-65
2023/06/26 00:24:25;;;;;;;12.00;6.72;;;;;;;23.62;53.47;100420.00;4159493;28;20033;-65
2023/06/26 00:26:27;;;;;;;9.43;6.10;;;;;;;23.60;53.39;100424.53;4161242;28;20033;-65
2023/06/26 00:28:30;;;;;;;10.95;6.30;;;;;;;23.59;53.52;100417.47;4138347;28;20631;-65
2023/06/26 00:30:34;;;;;;;9.48;5.72;;;;;;;23.61;53.39;100420.97;4152887;28;20042;-65
2023/06/26 00:32:38;;;;;;;11.93;6.10;;;;;;;23.60;53.46;100413.06;4153034;28;20056;-65
2023/06/26 00:34:41;;;;;;;11.02;6.35;;;;;;;23.53;53.76;100423.03;4161241;22;20053;-68
2023/06/26 00:36:44;;;;;;;10.98;6.72;;;;;;;23.50;53.56;100418.72;4143556;28;20046;-68
2023/06/26 00:38:47;;;;;;;13.93;6.97;;;;;;;23.44;53.29;100415.47;4127705;28;20048;-68
2023/06/26 00:40:54;;;;;;;14.32;7.25;;;;;;;23.42;52.85;100418.19;4142737;28;20034;-68
2023/06/26 00:42:58;;;;;;;11.75;6.78;;;;;;;23.44;52.45;100424.28;4141835;28;20041;-68
2023/06/26 00:45:01;;;;;;;13.30;6.28;;;;;;;23.41;52.69;100416.44;4143382;28;20518;-68
2023/06/26 00:47:07;;;;;;;;;;;;;;;23.33;53.13;100416.75;4144276;28;20126;-68
2023/06/26 00:49:10;;;;;;;9.77;6.63;;;;;;;23.39;52.96;100414.78;4142608;28;19932;-68
2023/06/26 00:51:13;;;;;;;9.40;6.10;;;;;;;23.41;53.14;100412.91;4149271;28;20041;-68
2023/06/26 00:53:16;;;;;;;9.85;6.30;;;;;;;23.49;52.92;100408.16;4143505;28;20057;-68
2023/06/26 00:55:19;;;;;;;10.73;6.70;;;;;;;23.45;53.38;100404.78;4155665;28;20124;-68
2023/06/26 00:57:22;;;;;;;9.38;7.05;;;;;;;23.43;53.51;100400.47;4156536;28;20065;-68
2023/06/26 00:59:25;;;;;;;12.18;6.90;;;;;;;23.44;53.35;100399.56;4140765;28;20221;-69
2023/06/26 01:01:30;;;;;;;11.90;6.57;;;;;;;23.39;53.45;100398.84;4158042;28;20214;-68
2023/06/26 01:03:37;;;;;;;9.68;6.50;;;;;;;23.36;53.15;100394.53;4157730;28;20065;-68
2023/06/26 01:05:40;;;;;;;10.80;6.88;;;;;;;23.36;52.98;100394.53;4159527;28;20040;-68
2023/06/26 01:07:43;;;;;;;11.20;6.05;;;;;;;23.35;52.97;100393.69;4161118;28;20491;-68
2023/06/26 01:09:47;;;;;;;8.57;6.38;;;;;;;23.39;52.86;100394.41;4127823;28;20266;-68
2023/06/26 01:11:50;;;;;;;10.27;6.47;;;;;;;23.32;53.30;100387.66;4143352;28;20050;-68
2023/06/26 01:13:55;;;;;;;9.33;6.37;;;;;;;23.23;53.40;100388.00;4144106;28;20522;-68
2023/06/26 01:15:59;;;;;;;8.02;5.75;;;;;;;23.23;52.99;100388.00;4160209;28;20367;-68
2023/06/26 01:18:03;;;;;;;;;;;;;;;23.09;53.42;100392.03;4145318;28;20034;-68
2023/06/26 01:20:09;;;;;;;11.65;6.57;;;;;;;23.13;53.20;100398.09;4144075;28;19937;-68
2023/06/26 01:22:20;;;;;;;11.48;7.28;;;;;;;23.14;52.73;100389.22;4143734;28;20486;-68
2023/06/26 01:24:27;;;;;;;9.30;6.57;;;;;;;23.15;52.15;100386.50;4157657;28;20052;-68
2023/06/26 01:26:35;;;;;;;9.43;6.28;;;;;;;23.15;52.31;100385.66;4145653;28;20132;-68
2023/06/26 01:28:41;;;;;;;8.50;6.30;;;;;;;23.16;52.50;100382.94;4144633;28;20034;-67
2023/06/26 01:30:46;;;;;;;12.88;6.85;;;;;;;23.16;52.82;100384.72;4143380;28;21150;-68
2023/06/26 01:32:50;;;;;;;12.75;6.40;;;;;;;23.15;52.39;100380.34;4144569;28;20407;-68
2023/06/26 01:34:53;;;;;;;;;;;;;;;22.92;53.63;100382.06;4129592;28;20508;-68
2023/06/26 01:36:56;;;;;;;11.75;6.25;;;;;;;22.93;53.13;100380.28;4161184;28;21630;-68
2023/06/26 01:38:59;;;;;;;8.27;6.00;;;;;;;22.87;53.00;100378.72;4160902;28;20128;-68
2023/06/26 01:41:03;;;;;;;12.48;6.63;;;;;;;22.86;53.04;100382.31;4144793;28;20045;-68
2023/06/26 01:43:14;;;;;;;10.05;6.55;;;;;;;22.84;53.28;100376.19;4159209;28;20037;-68
2023/06/26 01:45:24;;;;;;;8.45;6.45;;;;;;;22.80;53.42;100375.44;4144898;28;20065;-68
2023/06/26 01:47:32;;;;;;;10.77;7.05;;;;;;;22.82;53.91;100378.03;4158229;28;20033;-68
2023/06/26 01:49:44;;;;;;;8.35;5.57;;;;;;;22.89;53.72;100376.88;4144052;28;20053;-68
2023/06/26 01:51:56;;;;;;;11.98;6.60;;;;;;;22.93;53.96;100377.63;4143954;28;20079;-68
2023/06/26 01:54:01;;;;;;;8.30;5.93;;;;;;;22.93;53.99;100377.63;4157463;28;20045;-68
2023/06/26 01:56:09;;;;;;;13.68;6.57;;;;;;;22.94;54.52;100368.75;4127903;28;20124;-68
2023/06/26 01:58:16;;;;;;;11.40;6.88;;;;;;;22.86;54.50;100381.44;4144331;28;20081;-68
2023/06/26 02:00:21;;;;;;;9.65;6.90;;;;;;;22.80;54.77;100385.19;4142739;28;20108;-68
2023/06/26 02:02:25;;;;;;;11.82;5.90;;;;;;;22.74;54.96;100380.13;4143827;28;20053;-68
2023/06/26 02:04:28;;;;;;;10.20;6.82;;;;;;;22.77;55.19;100377.34;4142385;28;20101;-68
2023/06/26 02:06:32;;;;;;;12.97;6.93;;;;;;;22.78;55.09;100382.59;4144937;28;20121;-68
2023/06/26 02:08:35;;;;;;;8.82;6.07;;;;;;;22.77;55.21;100377.34;4159926;28;20033;-68
2023/06/26 02:10:37;;;;;;;9.18;6.00;;;;;;;22.78;55.26;100381.72;4143737;28;20505;-68
2023/06/26 02:12:41;;;;;;;9.48;6.72;;;;;;;22.81;55.36;100382.47;4149418;28;20530;-68
2023/06/26 02:14:45;;;;;;;13.55;7.28;;;;;;;22.78;55.47;100387.00;4143292;28;20085;-68
2023/06/26 02:16:48;;;;;;;11.73;7.65;;;;;;;22.79;54.98;100387.00;4142407;28;20129;-68
2023/06/26 02:18:51;;;;;;;14.60;6.93;;;;;;;22.82;54.84;100388.63;4144705;28;20046;-68
2023/06/26 02:20:53;;;;;;;11.05;6.75;;;;;;;22.82;55.14;100380.69;4142584;28;20041;-68
2023/06/26 02:22:57;;;;;;;10.13;6.90;;;;;;;22.74;55.22;100388.94;4143674;28;20038;-67
2023/06/26 02:25:00;;;;;;;9.00;6.47;;;;;;;22.67;55.40;100390.94;4143129;28;20080;-67
2023/06/26 02:27:03;;;;;;;9.07;5.60;;;;;;;22.60;55.57;100384.13;4143842;28;20033;-68
2023/06/26 02:29:05;;;;;;;8.73;6.55;;;;;;;22.59;55.26;100385.06;4143827;28;20502;-68
2023/06/26 02:31:10;;;;;;;9.25;6.45;;;;;;;22.56;55.11;100386.97;4142809;28;20045;-68
2023/06/26 02:33:12;;;;;;;9.10;6.53;;;;;;;22.52;54.99;100385.38;4145136;28;20037;-68
2023/06/26 02:35:16;;;;;;;9.32;6.10;;;;;;;22.52;55.16;100388.88;4143262;28;20108;-68
2023/06/26 02:37:19;;;;;;;8.38;6.93;;;;;;;22.49;55.17;100383.69;4159930;28;20072;-68
2023/06/26 02:39:22;;;;;;;9.50;7.03;;;;;;;22.44;54.72;100388.28;4160045;28;20118;-68
2023/06/26 02:41:26;;;;;;;10.07;6.70;;;;;;;22.41;54.78;100377.78;4160473;28;20037;-68
2023/06/26 02:43:29;;;;;;;9.32;6.63;;;;;;;22.40;54.29;100382.22;4144480;28;20065;-68
2023/06/26 02:45:32;;;;;;;9.13;6.90;;;;;;;22.36;54.12;100379.75;4144346;28;20042;-68
2023/06/26 02:47:39;;;;;;;11.18;6.82;;;;;;;22.33;54.57;100385.13;4142243;28;20034;-68
2023/06/26 02:49:43;;;;;;;9.65;6.70;;;;;;;22.28;54.55;100386.16;4144197;28;20026;-68
2023/06/26 02:51:46;;;;;;;9.38;6.35;;;;;;;22.29;54.33;100379.91;4144528;28;20057;-68
2023/06/26 02:53:57;;;;;;;11.13;7.07;;;;;;;22.26;54.37;100390.63;4143771;28;20065;-68
2023/06/26 02:56:00;;;;;;;8.73;6.20;;;;;;;22.22;54.42;100389.00;4145081;28;20297;-68
2023/06/26 02:58:05;;;;;;;8.23;6.72;;;;;;;22.21;54.35;100382.00;4127854;28;20046;-68
2023/06/26 03:00:11;;;;;;;;;;;;;;;22.05;55.11;100391.38;4144448;28;20040;-67
2023/06/26 03:02:19;;;;;;;7.53;6.28;;;;;;;22.08;54.79;100392.16;4145273;28;19960;-67
2023/06/26 03:04:24;;;;;;;8.70;6.65;;;;;;;22.05;55.12;100391.38;4159634;28;20033;-68
2023/06/26 03:06:27;;;;;;;8.07;6.65;;;;;;;22.09;55.26;100396.53;4142477;28;20038;-68
2023/06/26 03:08:30;;;;;;;7.60;5.90;;;;;;;22.06;55.38;100393.13;4158919;28;20045;-68
2023/06/26 03:10:34;;;;;;;8.20;6.22;;;;;;;22.08;55.56;100389.50;4142485;28;20037;-68
2023/06/26 03:12:37;;;;;;;9.27;6.68;;;;;;;22.07;55.55;100394.84;4143081;28;20125;-67
2023/06/26 03:14:40;;;;;;;8.77;6.95;;;;;;;22.06;55.57;100393.97;4144332;28;20046;-68
2023/06/26 03:16:43;;;;;;;9.45;6.50;;;;;;;22.02;55.77;100402.06;4160013;28;20616;-68
2023/06/26 03:18:47;;;;;;;10.55;6.82;;;;;;;22.05;55.63;100401.97;4144429;28;20042;-68
2023/06/26 03:20:53;;;;;;;8.88;6.97;;;;;;;22.00;56.04;100395.97;4127911;28;20081;-68
2023/06/26 03:22:56;;;;;;;10.07;6.30;;;;;;;21.99;56.15;100397.78;4139107;28;20069;-68
2023/06/26 03:24:59;;;;;;;8.05;6.53;;;;;;;22.01;56.42;100390.63;4144766;28;20491;-68
2023/06/26 03:27:02;;;;;;;8.90;6.80;;;;;;;22.07;56.24;100394.84;4159278;28;20041;-68
2023/06/26 03:29:05;;;;;;;8.80;6.57;;;;;;;22.01;56.54;100395.91;4127061;28;20528;-68
2023/06/26 03:31:10;;;;;;;8.73;5.95;;;;;;;22.03;56.67;100394.06;4142884;28;20149;-67
2023/06/26 03:33:13;;;;;;;8.75;7.45;;;;;;;22.02;57.14;100392.38;4155931;28;20376;-67
2023/06/26 03:35:16;;;;;;;8.65;7.18;;;;;;;22.02;57.28;100394.13;4158415;28;20091;-67
2023/06/26 03:37:20;;;;;;;8.13;6.78;;;;;;;21.94;57.40;100389.97;4158690;28;21347;-67
2023/06/26 03:39:24;;;;;;;7.65;6.18;;;;;;;21.96;57.40;100392.56;4139202;28;20404;-74
2023/06/26 03:41:28;;;;;;;8.50;6.72;;;;;;;22.14;57.28;100391.06;4141019;28;20029;-74
2023/06/26 03:43:30;;;;;;;12.35;7.50;;;;;;;22.31;56.74;100401.94;4142589;28;20038;-74
2023/06/26 03:45:48;;;;;;;11.05;6.82;;;;;;;22.34;56.83;100393.06;4155563;28;20041;-74
2023/06/26 03:47:52;;;;;;;11.25;7.22;;;;;;;22.31;56.85;100396.63;4159702;28;20056;-74
2023/06/26 03:49:55;;;;;;;9.35;7.22;;;;;;;22.25;57.03;100388.91;4139231;28;20152;-73
2023/06/26 03:51:58;;;;;;;13.73;6.97;;;;;;;22.20;57.05;100401.44;4144981;28;20038;-74
2023/06/26 03:54:02;;;;;;;12.70;6.45;;;;;;;22.19;57.15;100393.56;4125619;28;20129;-74
2023/06/26 03:56:05;;;;;;;;;;;;;;;22.10;57.62;100395.59;4142469;28;20037;-74
2023/06/26 03:58:07;;;;;;;8.68;6.40;;;;;;;22.08;57.14;100391.28;4163259;28;19924;-74
2023/06/26 04:00:12;;;;;;;9.85;7.43;;;;;;;22.09;57.20;100387.72;4145357;28;20046;-74
2023/06/26 04:02:18;;;;;;;8.45;6.15;;;;;;;22.07;57.18;100385.13;4143749;28;20049;-74
2023/06/26 04:04:21;;;;;;;8.95;6.63;;;;;;;22.10;57.42;100390.28;4144400;28;20104;-74
2023/06/26 04:06:24;;;;;;;9.80;6.72;;;;;;;22.16;57.19;100383.94;4127016;28;20129;-74
2023/06/26 04:08:27;;;;;;;10.05;6.32;;;;;;;22.25;56.85;100394.22;4146008;28;20523;-74
2023/06/26 04:10:32;;;;;;;7.65;6.20;;;;;;;22.27;56.89;100389.72;4161953;28;20096;-74
2023/06/26 04:12:35;;;;;;;8.23;6.20;;;;;;;22.31;56.68;100388.69;4142337;28;20129;-75
2023/06/26 04:14:38;;;;;;;8.73;7.03;;;;;;;22.37;56.44;100392.06;4143751;28;20137;-64
2023/06/26 04:16:41;;;;;;;8.52;6.25;;;;;;;22.22;56.72;100404.88;4146571;28;20121;-64
2023/06/26 04:18:44;;;;;;;11.57;6.20;;;;;;;22.10;57.21;100400.88;4147085;28;20049;-64
2023/06/26 04:21:06;;;;;;;9.65;5.90;;;;;;;22.01;57.33;100405.66;4146242;28;20055;-64
2023/06/26 04:23:10;;;;;;;8.07;6.18;;;;;;;21.89;57.36;100413.09;4146742;28;20472;-64
2023/06/26 04:25:13;;;;;;;8.90;6.30;;;;;;;21.94;57.49;100405.84;4144578;28;20061;-64
2023/06/26 04:27:17;;;;;;;9.85;6.05;;;;;;;22.04;57.57;100405.56;4146012;28;20237;-65
2023/06/26 04:29:21;;;;;;;;;;;;;;;21.95;57.77;100417.31;4146262;28;20049;-66
2023/06/26 04:31:24;;;;;;;9.77;7.18;;;;;;;21.92;57.55;100412.97;4142640;28;20383;-66
2023/06/26 04:33:27;;;;;;;13.27;6.15;;;;;;;21.93;57.75;100417.38;4145765;28;20076;-66
2023/06/26 04:35:30;;;;;;;12.35;7.15;;;;;;;21.99;57.56;100408.34;4144339;28;20372;-65
2023/06/26 04:37:33;;;;;;;9.30;6.93;;;;;;;22.05;57.29;100412.56;4145496;28;20125;-65
2023/06/26 04:39:37;;;;;;;10.32;7.55;;;;;;;22.13;56.92;100410.50;4144037;28;20589;-66
2023/06/26 04:41:40;;;;;;;;;;;;;;;22.03;56.54;100404.66;4145385;28;20125;-65
2023/06/26 04:43:44;;;;;;;10.48;7.32;;;;;;;22.04;56.09;100414.34;4141249;28;19922;-66
2023/06/26 04:45:47;;;;;;;11.95;8.55;;;;;;;22.14;55.26;100401.66;4147218;28;20472;-65
2023/06/26 04:47:50;;;;;;;8.90;7.68;;;;;;;22.07;55.50;100400.16;4145532;28;20092;-66
2023/06/26 04:49:53;;;;;;;9.07;7.25;;;;;;;22.15;55.07;100406.03;4147286;28;20423;-66
2023/06/26 04:51:59;;;;;;;9.93;7.53;;;;;;;22.13;55.00;100405.22;4149179;28;20403;-65
2023/06/26 04:54:02;;;;;;;14.77;8.52;;;;;;;22.20;54.55;100405.88;4146703;28;20046;-65
2023/06/26 04:56:05;;;;;;;9.68;7.25;;;;;;;22.18;54.43;100397.09;4145708;28;20041;-65
2023/06/26 04:58:08;;;;;;;11.55;8.07;;;;;;;22.21;54.64;100397.88;4146278;28;20037;-65
2023/06/26 05:00:15;;;;;;;8.80;7.28;;;;;;;22.21;54.61;100405.84;4145568;28;20042;-66
2023/06/26 05:02:17;;;;;;;11.20;8.40;;;;;;;22.30;54.81;100399.34;4147313;28;20140;-65
2023/06/26 05:04:21;;;;;;;8.57;6.70;;;;;;;22.25;55.04;100396.88;4148940;28;20066;-66
2023/06/26 05:06:24;;;;;;;11.43;7.90;;;;;;;22.34;55.12;100402.75;4150254;28;20073;-65
2023/06/26 05:08:27;;;;;;;9.82;8.32;;;;;;;22.49;54.27;100404.88;4149001;28;20038;-66
2023/06/26 05:10:30;;;;;;;8.82;7.20;;;;;;;22.48;54.89;100397.84;4150003;28;20132;-65
2023/06/26 05:12:32;;;;;;;8.70;7.00;;;;;;;22.48;54.42;100404.00;4150196;28;20065;-66
2023/06/26 05:14:36;;;;;;;10.00;7.60;;;;;;;22.50;54.64;100401.28;4149843;28;20060;-65
2023/06/26 05:16:40;;;;;;;9.05;7.13;;;;;;;22.56;54.74;100409.03;4150043;28;20038;-65
2023/06/26 05:18:43;;;;;;;10.63;8.38;;;;;;;22.64;54.53;100398.16;4150108;28;20038;-65
2023/06/26 05:20:46;;;;;;;12.02;8.10;;;;;;;22.77;53.73;100403.84;4149076;28;20554;-65
2023/06/26 05:22:51;;;;;;;9.50;8.23;;;;;;;22.77;53.21;100398.56;4144875;28;20046;-66
2023/06/26 05:24:55;;;;;;;;;;;;;;;22.58;53.22;100409.84;4146198;28;20137;-66
2023/06/26 05:26:58;;;;;;;9.23;7.22;;;;;;;22.62;53.19;100410.59;4144982;28;20335;-65
2023/06/26 05:29:02;;;;;;;12.68;7.10;;;;;;;22.61;53.08;100407.06;4128984;28;20569;-65
2023/06/26 05:31:05;;;;;;;12.10;7.40;;;;;;;22.70;53.19;100405.00;4145795;28;20447;-65
2023/06/26 05:33:12;;;;;;;9.93;7.90;;;;;;;22.72;53.05;100406.69;4160867;28;20482;-65
2023/06/26 05:35:16;;;;;;;10.18;7.25;;;;;;;22.87;52.98;100413.19;4146982;28;20100;-65
2023/06/26 05:37:21;;;;;;;9.02;6.70;;;;;;;22.99;52.63;100407.41;4145587;28;20492;-65
2023/06/26 05:39:25;;;;;;;10.50;7.82;;;;;;;23.15;52.44;100406.88;4144601;28;20184;-65
2023/06/26 05:41:29;;;;;;;9.50;7.45;;;;;;;23.24;51.91;100403.00;4158962;28;20458;-65
2023/06/26 05:43:31;;;;;;;10.45;7.93;;;;;;;23.30;51.58;100408.03;4144626;28;20128;-65
2023/06/26 05:45:34;;;;;;;10.02;6.63;;;;;;;23.20;52.00;100401.38;4145884;28;20078;-65
2023/06/26 05:47:38;;;;;;;10.05;7.82;;;;;;;23.25;52.03;100413.53;4144554;28;20061;-65
2023/06/26 05:49:43;;;;;;;10.15;7.68;;;;;;;23.33;51.51;100406.16;4145528;28;20049;-65
2023/06/26 05:51:46;;;;;;;9.48;7.13;;;;;;;23.39;51.49;100405.00;4145266;28;20045;-65
2023/06/26 05:53:50;;;;;;;9.73;7.30;;;;;;;23.45;51.44;100409.22;4144980;28;20049;-65
2023/06/26 05:55:53;;;;;;;9.90;7.68;;;;;;;23.39;51.43;100409.47;4145096;28;20248;-65
2023/06/26 05:57:58;;;;;;;10.40;7.78;;;;;;;23.47;51.17;100412.69;4144695;28;20061;-65
2023/06/26 06:00:05;;;;;;;13.73;7.40;;;;;;;23.59;51.02;100414.81;4146034;28;20041;-65
2023/06/26 06:02:15;;;;;;;9.55;7.30;;;;;;;23.61;50.77;100414.75;4144312;28;20037;-65
2023/06/26 06:04:18;;;;;;;10.35;8.48;;;;;;;23.65;50.92;100405.75;4129624;28;20058;-65
2023/06/26 06:06:22;;;;;;;10.05;8.15;;;;;;;23.88;50.00;100407.50;4144720;28;20129;-65
2023/06/26 06:08:25;;;;;;;12.18;7.47;;;;;;;23.82;50.85;100411.22;4144139;28;20064;-65
2023/06/26 06:10:28;;;;;;;10.65;7.20;;;;;;;23.85;50.30;100407.59;4146303;28;20076;-65
2023/06/26 06:12:31;;;;;;;9.32;7.35;;;;;;;23.86;50.07;100410.22;4146279;28;20046;-65
2023/06/26 06:14:34;;;;;;;10.07;7.68;;;;;;;23.99;50.09;100407.03;4144196;28;20048;-65
2023/06/26 06:16:37;;;;;;;9.85;7.55;;;;;;;23.97;49.81;100400.94;4146993;28;20038;-65
2023/06/26 06:18:40;;;;;;;9.55;8.38;;;;;;;23.97;50.29;100395.63;4145257;28;20193;-65
2023/06/26 06:20:43;;;;;;;12.95;7.60;;;;;;;24.12;50.34;100404.72;4145626;28;20052;-65
2023/06/26 06:22:48;;;;;;;8.88;7.55;;;;;;;24.21;50.30;100399.88;4145391;28;20070;-65
2023/06/26 06:24:51;;;;;;;11.43;8.00;;;;;;;24.27;49.88;100404.06;4143254;28;20049;-65
2023/06/26 06:26:54;;;;;;;10.15;8.10;;;;;;;24.37;49.95;100405.38;4144982;28;20056;-65
2023/06/26 06:28:57;;;;;;;11.07;7.43;;;;;;;24.31;49.86;100408.31;4143014;28;20037;-65
2023/06/26 06:31:00;;;;;;;10.45;7.13;;;;;;;24.42;49.57;100406.97;4145552;28;20042;-65
2023/06/26 06:33:03;;;;;;;9.95;7.80;;;;;;;24.64;49.02;100402.44;4145995;28;20048;-65
2023/06/26 06:35:09;;;;;;;17.15;8.60;;;;;;;24.66;48.84;100410.34;4168688;22;20120;-60
2023/06/26 06:37:13;;;;;;;12.30;8.48;;;;;;;24.58;48.43;100421.28;4152453;28;20554;-61
2023/06/26 06:39:17;;;;;;;9.98;7.47;;;;;;;24.67;48.78;100412.94;4171409;28;20034;-61
2023/06/26 06:41:20;;;;;;;;;;;;;;;24.82;48.29;100406.03;4169064;28;20041;-61
2023/06/26 06:43:23;;;;;;;12.32;7.22;;;;;;;24.87;47.99;100405.84;4150161;28;19960;-61
2023/06/26 06:45:26;;;;;;;11.90;8.70;;;;;;;25.01;47.48;100410.50;4160665;28;20137;-61
2023/06/26 06:47:28;;;;;;;8.80;7.13;;;;;;;25.02;48.38;100412.25;4155712;28;20040;-60
2023/06/26 06:49:31;;;;;;;10.75;8.52;;;;;;;25.17;47.84;100405.34;4154899;28;20053;-61
2023/06/26 06:51:34;;;;;;;10.45;6.78;;;;;;;25.15;48.15;100402.75;4155377;28;20029;-61
2023/06/26 06:53:37;;;;;;;10.77;8.25;;;;;;;25.17;47.53;100411.50;4149631;28;20037;-61
2023/06/26 06:55:41;;;;;;;9.15;7.53;;;;;;;25.29;47.17;100406.53;4156461;28;20057;-60
2023/06/26 06:57:44;;;;;;;13.05;8.43;;;;;;;25.36;46.94;100403.53;4152787;28;20121;-61
2023/06/26 06:59:48;;;;;;;12.52;7.63;;;;;;;25.26;47.25;100399.56;4157872;28;20041;-61
2023/06/26 07:01:51;;;;;;;12.80;7.97;;;;;;;25.34;47.42;100404.56;4164525;28;20069;-61
2023/06/26 07:03:54;;;;;;;9.43;7.55;;;;;;;25.47;47.21;100394.19;4163384;28;20124;-60
2023/06/26 07:05:57;;;;;;;10.40;7.07;;;;;;;25.44;47.04;100403.19;4164499;28;20384;-61
2023/06/26 07:08:00;;;;;;;10.18;7.45;;;;;;;25.51;47.15;100403.72;4146665;28;20424;-61
2023/06/26 07:10:06;;;;;;;9.00;6.70;;;;;;;25.65;47.43;100405.72;4164737;28;20047;-61
2023/06/26 07:12:11;;;;;;;8.38;7.03;;;;;;;25.73;47.32;100401.75;4164592;28;20041;-61
2023/06/26 07:14:13;;;;;;;;;;;;;;;25.79;46.67;100401.44;4164797;28;20045;-61
2023/06/26 07:16:16;;;;;;;8.82;6.93;;;;;;;25.77;46.63;100410.41;4146899;28;19944;-61
2023/06/26 07:18:19;;;;;;;8.65;6.88;;;;;;;25.87;46.79;100400.19;4164414;28;20450;-61
2023/06/26 07:20:22;;;;;;;10.27;7.43;;;;;;;25.98;46.87;100391.63;4145986;28;20042;-61
2023/06/26 07:22:25;;;;;;;8.85;7.30;;;;;;;26.09;46.56;100390.19;4164530;28;20076;-61
2023/06/26 07:24:28;;;;;;;8.75;7.53;;;;;;;26.09;46.03;100392.88;4164198;28;20049;-61
2023/06/26 07:26:31;;;;;;;9.27;7.32;;;;;;;26.16;46.07;100384.53;4164543;28;20049;-61
2023/06/26 07:28:49;;;;;;;10.18;7.10;;;;;;;26.27;45.93;100390.19;4164406;28;20053;-61
2023/06/26 07:30:52;;;;;;;8.35;7.18;;;;;;;26.35;45.27;100385.28;4164512;28;20041;-61
2023/06/26 07:32:55;;;;;;;10.45;7.40;;;;;;;26.49;45.54;100389.91;4146862;28;20041;-61
2023/06/26 07:34:58;;;;;;;9.80;8.52;;;;;;;26.55;45.36;100386.03;4164038;28;20041;-61
2023/06/26 07:37:01;;;;;;;10.23;7.15;;;;;;;26.53;45.56;100393.25;4163059;28;20045;-61
2023/06/26 07:39:04;;;;;;;8.20;6.25;;;;;;;26.60;45.65;100394.63;4163302;28;20124;-61
2023/06/26 07:41:07;;;;;;;8.00;6.55;;;;;;;26.67;45.71;100390.69;4163225;28;20499;-61
2023/06/26 07:43:09;;;;;;;9.30;7.93;;;;;;;26.87;45.61;100392.31;4159664;28;20032;-61
2023/06/26 07:45:14;;;;;;;12.00;7.65;;;;;;;26.91;45.19;100393.00;4145969;28;20172;-61
2023/06/26 07:47:17;;;;;;;8.48;6.70;;;;;;;26.89;44.99;100389.56;4157208;28;20132;-61
2023/06/26 07:49:20;;;;;;;10.68;7.45;;;;;;;26.95;45.65;100395.41;4156475;28;20042;-61
2023/06/26 07:51:23;;;;;;;11.82;7.05;;;;;;;27.00;44.99;100398.69;4127476;28;20039;-61
2023/06/26 07:53:26;;;;;;;12.27;6.13;;;;;;;27.13;44.74;100389.97;4154801;28;20029;-61
2023/06/26 07:55:29;;;;;;;8.18;6.80;;;;;;;27.12;44.95;100396.28;4142070;28;20033;-61
2023/06/26 07:57:33;;;;;;;8.75;7.38;;;;;;;27.21;44.51;100389.56;4157915;28;20497;-61
2023/06/26 07:59:36;;;;;;;9.75;6.75;;;;;;;27.18;44.99;100390.59;4157494;28;20594;-61
2023/06/26 08:01:40;;;;;;;7.72;6.03;;;;;;;27.30;44.70;100395.22;4156990;28;20029;-61
2023/06/26 08:03:54;;;;;;;16.45;7.72;;;;;;;27.41;44.61;100392.00;4155135;28;20038;-61
2023/06/26 08:05:57;;;;;;;11.40;6.15;;;;;;;27.47;44.27;100390.78;4156675;28;20041;-61
2023/06/26 08:08:01;;;;;;;10.20;6.47;;;;;;;27.48;44.24;100397.81;4158658;28;20041;-61
2023/06/26 08:10:05;;;;;;;10.88;6.97;;;;;;;27.47;43.67;100396.13;4147516;28;20049;-61
2023/06/26 08:12:08;;;;;;;9.60;6.88;;;;;;;27.55;43.57;100395.69;4127453;28;20034;-61
2023/06/26 08:14:14;;;;;;;7.55;6.40;;;;;;;27.66;43.63;100399.44;4154667;28;20044;-61
2023/06/26 08:16:17;;;;;;;8.23;6.07;;;;;;;27.74;43.10;100398.97;4160277;28;20407;-61
2023/06/26 08:18:21;;;;;;;6.78;5.60;;;;;;;27.88;43.19;100406.19;4154846;28;20064;-61
2023/06/26 08:20:24;;;;;;;9.52;6.60;;;;;;;28.05;42.73;100402.53;4140200;28;20052;-61
2023/06/26 08:22:27;;;;;;;7.75;5.68;;;;;;;28.23;42.17;100407.72;4155226;28;20065;-61
2023/06/26 08:24:30;;;;;;;7.53;6.35;;;;;;;28.28;42.37;100411.00;4158006;28;20061;-61
2023/06/26 08:26:33;;;;;;;8.38;5.65;;;;;;;28.12;42.52;100408.38;4156050;28;20056;-61
2023/06/26 08:28:36;;;;;;;8.05;6.15;;;;;;;28.23;42.54;100405.06;4154223;28;20376;-61
2023/06/26 08:30:39;;;;;;;10.32;5.63;;;;;;;28.33;42.83;100412.44;4143475;28;20045;-61
2023/06/26 08:32:42;;;;;;;9.88;5.80;;;;;;;28.47;41.62;100403.56;4143371;28;20038;-62
2023/06/26 08:34:46;;;;;;;18.10;7.00;;;;;;;28.46;41.31;100411.66;4144903;28;20133;-62
2023/06/26 08:36:51;;;;;;;12.60;6.00;;;;;;;28.30;40.49;100412.63;4158928;28;20107;-61
2023/06/26 08:38:54;;;;;;;13.07;6.25;;;;;;;28.14;41.56;100407.34;4157724;28;20038;-61
2023/06/26 08:40:57;;;;;;;10.10;6.13;;;;;;;28.17;41.82;100408.97;4155289;28;20049;-62
2023/06/26 08:43:00;;;;;;;11.60;6.40;;;;;;;28.10;41.62;100405.81;4145787;28;20065;-62
2023/06/26 08:45:03;;;;;;;12.57;6.00;;;;;;;28.01;41.26;100417.06;4145859;28;20073;-62
2023/06/26 08:47:06;;;;;;;10.70;6.32;;;;;;;27.89;40.87;100421.28;4137935;28;20039;-62
2023/06/26 08:49:15;;;;;;;14.40;6.47;;;;;;;27.85;41.93;100417.06;4155323;28;20411;-62
2023/06/26 08:51:22;;;;;;;12.40;5.90;;;;;;;27.98;41.17;100426.09;4147515;28;20076;-62
2023/06/26 08:53:34;;;;;;;10.38;6.50;;;;;;;28.31;40.36;100418.81;4153908;28;20048;-62
2023/06/26 08:55:39;;;;;;;13.45;5.85;;;;;;;28.32;39.75;100420.56;4158660;28;20041;-62
2023/06/26 08:57:42;;;;;;;7.00;4.97;;;;;;;28.22;39.85;100425.59;4155749;28;20113;-62
2023/06/26 08:59:48;;;;;;;10.80;6.32;;;;;;;28.19;40.11;100426.63;4155813;28;20042;-62
2023/06/26 09:01:51;;;;;;;8.57;5.93;;;;;;;28.34;39.50;100426.66;4148845;28;20121;-62
2023/06/26 09:03:54;;;;;;;11.17;6.37;;;;;;;28.58;39.39;100426.97;4165878;28;20045;-62
2023/06/26 09:05:57;;;;;;;10.05;5.10;;;;;;;28.82;38.93;100424.59;4166366;28;20371;-62
2023/06/26 09:08:01;;;;;;;10.40;6.00;;;;;;;29.00;38.62;100421.72;4166595;28;20041;-62
2023/06/26 09:10:04;;;;;;;9.50;5.95;;;;;;;29.15;38.36;100425.25;4166663;28;20042;-62
2023/06/26 09:12:09;;;;;;;7.63;5.45;;;;;;;29.29;38.07;100437.75;4166493;28;20136;-62
2023/06/26 09:14:13;;;;;;;11.20;6.32;;;;;;;29.40;37.54;100424.53;4166096;28;20137;-62
2023/06/26 09:16:17;;;;;;;9.25;6.25;;;;;;;29.67;37.90;100427.22;4132472;28;20042;-62
2023/06/26 09:18:21;;;;;;;10.85;6.45;;;;;;;29.83;36.76;100432.41;4166381;28;20091;-62
2023/06/26 09:20:28;;;;;;;9.32;5.47;;;;;;;29.84;37.14;100423.44;4160222;28;20037;-62
2023/06/26 09:22:38;;;;;;;7.47;4.90;;;;;;;29.76;36.99;100426.59;4161008;28;20045;-62
2023/06/26 09:24:44;;;;;;;8.95;5.90;;;;;;;29.81;36.23;100418.25;4166088;28;20036;-62
2023/06/26 09:26:48;;;;;;;7.40;5.20;;;;;;;29.96;36.88;100421.72;4148583;28;20050;-62
2023/06/26 09:28:52;;;;;;;9.82;4.97;;;;;;;30.07;36.01;100419.19;4166303;28;20483;-63
2023/06/26 09:30:55;;;;;;;7.07;5.63;;;;;;;30.11;36.41;100431.44;4165655;28;20052;-63
2023/06/26 09:32:58;;;;;;;8.65;5.72;;;;;;;30.32;36.02;100430.06;4153564;28;20510;-63
2023/06/26 09:35:03;;;;;;;7.20;5.43;;;;;;;30.32;35.62;100430.06;4158872;28;20117;-62
2023/06/26 09:37:06;;;;;;;7.40;4.97;;;;;;;30.26;35.54;100428.66;4159777;28;20431;-63